createdAt,value
2019-02-20T00:00:40.982Z,86.40
2019-02-20T00:03:10.175Z,86.80
2019-02-20T00:05:39.331Z,87.10
2019-02-20T00:08:09.503Z,87.10
2019-02-20T00:10:38.711Z,87.40
2019-02-20T00:13:07.875Z,87.70
2019-02-20T00:15:37.231Z,87.80
2019-02-20T00:18:06.408Z,87.60
2019-02-20T00:20:35.604Z,87.50
2019-02-20T00:23:04.939Z,87.10
2019-02-20T00:25:34.123Z,86.70
2019-02-20T00:28:03.285Z,86.60
2019-02-20T00:30:32.516Z,86.50
2019-02-20T00:33:01.682Z,86.40
2019-02-20T00:35:30.855Z,86.40
2019-02-20T00:38:00.100Z,86.40
2019-02-20T00:40:29.373Z,86.20
2019-02-20T00:42:58.555Z,86.40
2019-02-20T00:45:35.337Z,86.40
2019-02-20T00:48:06.165Z,86.70
2019-02-20T00:50:36.986Z,86.90
2019-02-20T00:53:10.727Z,87.00
2019-02-20T00:55:39.913Z,87.30
2019-02-20T00:58:09.067Z,87.40
2019-02-20T01:00:38.254Z,87.50
2019-02-20T01:03:07.415Z,87.60
2019-02-20T01:05:36.589Z,87.60
2019-02-20T01:08:05.815Z,87.70
2019-02-20T01:10:34.989Z,87.80
2019-02-20T01:13:04.157Z,87.90
2019-02-20T01:15:33.416Z,88.00
2019-02-20T01:18:02.596Z,87.80
2019-02-20T01:20:31.863Z,87.50
2019-02-20T01:23:01.332Z,87.30
2019-02-20T01:25:30.522Z,87.00
2019-02-20T01:27:59.691Z,86.80
2019-02-20T01:30:28.872Z,86.80
2019-02-20T01:32:58.088Z,86.70
2019-02-20T01:35:27.570Z,86.70
2019-02-20T01:37:57.070Z,86.50
2019-02-20T01:40:26.252Z,86.50
2019-02-20T01:42:55.420Z,86.70
2019-02-20T01:45:24.609Z,86.80
2019-02-20T01:47:53.760Z,87.00
2019-02-20T01:50:22.945Z,87.30
2019-02-20T01:52:52.119Z,87.30
2019-02-20T01:55:21.299Z,87.10
2019-02-20T01:57:50.510Z,87.10
2019-02-20T02:00:19.676Z,87.10
2019-02-20T02:02:49.467Z,87.10
2019-02-20T02:05:18.709Z,87.20
2019-02-20T02:07:47.886Z,87.20
2019-02-20T02:10:17.057Z,87.10
2019-02-20T02:12:46.313Z,87.00
2019-02-20T02:15:20.449Z,87.20
2019-02-20T02:17:46.360Z,87.10
2019-02-20T02:20:15.525Z,87.20
2019-02-20T02:22:44.783Z,87.40
2019-02-20T02:25:13.942Z,87.40
2019-02-20T02:27:43.417Z,87.40
2019-02-20T02:30:13.645Z,87.40
2019-02-20T02:32:42.829Z,87.40
2019-02-20T02:35:11.985Z,87.60
2019-02-20T02:37:41.184Z,87.50
2019-02-20T02:40:10.359Z,87.50
2019-02-20T02:42:39.524Z,88.10
2019-02-20T02:45:08.701Z,88.30
2019-02-20T02:47:37.886Z,88.30
2019-02-20T02:50:08.210Z,88.20
2019-02-20T02:52:37.444Z,88.10
2019-02-20T02:55:06.684Z,87.80
2019-02-20T02:57:35.883Z,87.60
2019-02-20T03:00:08.254Z,87.20
2019-02-20T03:02:37.505Z,86.80
2019-02-20T03:05:07.969Z,86.50
2019-02-20T03:07:37.160Z,86.40
2019-02-20T03:10:07.970Z,86.50
2019-02-20T03:12:37.176Z,86.70
2019-02-20T03:15:08.744Z,86.50
2019-02-20T03:17:38.154Z,86.50
2019-02-20T03:20:08.792Z,86.80
2019-02-20T03:22:37.987Z,86.80
2019-02-20T03:25:07.333Z,86.70
2019-02-20T03:27:36.513Z,86.50
2019-02-20T03:30:07.143Z,86.70
2019-02-20T03:32:36.314Z,87.40
2019-02-20T03:35:06.327Z,87.70
2019-02-20T03:37:35.497Z,88.20
2019-02-20T03:40:06.763Z,88.30
2019-02-20T03:42:36.301Z,88.30
2019-02-20T03:45:07.053Z,88.20
2019-02-20T03:47:36.219Z,88.20
2019-02-20T03:50:07.193Z,87.90
2019-02-20T03:52:36.473Z,87.80
2019-02-20T03:55:06.676Z,87.60
2019-02-20T03:57:35.863Z,87.40
2019-02-20T04:00:08.181Z,87.60
2019-02-20T04:02:37.381Z,87.60
2019-02-20T04:05:06.988Z,87.40
2019-02-20T04:07:36.187Z,87.30
2019-02-20T04:10:08.905Z,87.00
2019-02-20T04:12:37.267Z,87.10
2019-02-20T04:15:07.465Z,87.10
2019-02-20T04:17:36.649Z,87.10
2019-02-20T04:20:07.252Z,86.90
2019-02-20T04:22:36.463Z,86.80
2019-02-20T04:25:06.301Z,86.80
2019-02-20T04:27:35.809Z,86.70
2019-02-20T04:30:07.741Z,86.90
2019-02-20T04:32:36.995Z,86.90
2019-02-20T04:35:06.170Z,87.10
2019-02-20T04:37:35.334Z,87.00
2019-02-20T04:40:06.130Z,86.90
2019-02-20T04:42:35.301Z,87.00
2019-02-20T04:45:05.914Z,87.20
2019-02-20T04:47:36.152Z,87.50
2019-02-20T04:50:07.878Z,87.70
2019-02-20T04:52:37.062Z,87.80
2019-02-20T04:55:06.598Z,87.60
2019-02-20T04:57:35.866Z,87.40
2019-02-20T05:00:08.239Z,87.40
2019-02-20T05:02:37.485Z,87.50
2019-02-20T05:05:06.885Z,87.50
2019-02-20T05:07:36.100Z,87.50
2019-02-20T05:10:08.106Z,87.60
2019-02-20T05:12:37.305Z,87.80
2019-02-20T05:15:06.553Z,87.80
2019-02-20T05:17:35.719Z,87.50
2019-02-20T05:20:07.917Z,87.30
2019-02-20T05:22:37.125Z,87.10
2019-02-20T05:25:06.279Z,87.00
2019-02-20T05:27:35.474Z,86.90
2019-02-20T05:30:06.084Z,86.80
2019-02-20T05:32:35.294Z,86.90
2019-02-20T05:35:05.014Z,86.90
2019-02-20T05:37:53.654Z,87.00
2019-02-20T05:40:22.857Z,87.00
2019-02-20T05:42:52.060Z,86.70
2019-02-20T05:45:21.910Z,86.20
2019-02-20T05:47:51.276Z,86.10
2019-02-20T05:50:20.593Z,86.30
2019-02-20T05:52:49.758Z,86.30
2019-02-20T05:55:18.932Z,86.40
2019-02-20T05:57:48.126Z,86.50
2019-02-20T06:00:17.494Z,86.70
2019-02-20T06:02:46.792Z,86.90
2019-02-20T06:05:16.119Z,87.00
2019-02-20T06:07:45.344Z,87.00
2019-02-20T06:10:14.677Z,86.90
2019-02-20T06:12:43.862Z,87.00
2019-02-20T06:15:13.053Z,87.20
2019-02-20T06:17:42.249Z,87.20
2019-02-20T06:20:11.897Z,87.30
2019-02-20T06:22:42.423Z,87.30
2019-02-20T06:25:11.599Z,87.30
2019-02-20T06:27:40.920Z,87.30
2019-02-20T06:30:12.169Z,87.20
2019-02-20T06:32:41.417Z,87.10
2019-02-20T06:35:10.605Z,86.90
2019-02-20T06:37:39.803Z,86.80
2019-02-20T06:40:10.099Z,86.70
2019-02-20T06:42:39.279Z,86.70
2019-02-20T06:45:10.788Z,86.60
2019-02-20T06:47:40.227Z,86.60
2019-02-20T06:50:09.424Z,86.40
2019-02-20T06:52:38.596Z,86.30
2019-02-20T06:55:11.971Z,86.40
2019-02-20T06:57:41.196Z,86.30
2019-02-20T07:00:12.727Z,86.20
2019-02-20T07:02:41.891Z,86.20
2019-02-20T07:05:34.533Z,86.10
2019-02-20T07:08:27.780Z,86.10
2019-02-20T07:11:24.240Z,85.80
2019-02-20T07:14:04.878Z,85.60
2019-02-20T07:16:45.976Z,85.60
2019-02-20T07:19:36.123Z,85.70
2019-02-20T07:22:26.040Z,85.90
2019-02-20T07:25:15.719Z,86.20
2019-02-20T07:28:02.976Z,86.20
2019-02-20T07:30:32.972Z,86.30
2019-02-20T07:33:02.174Z,86.60
2019-02-20T07:35:31.375Z,86.80
2019-02-20T07:38:00.546Z,86.90
2019-02-20T07:40:29.784Z,86.90
2019-02-20T07:42:58.979Z,86.80
2019-02-20T07:45:28.142Z,86.70
2019-02-20T07:47:57.327Z,86.60
2019-02-20T07:50:26.537Z,86.40
2019-02-20T07:52:55.727Z,86.10
2019-02-20T07:55:24.910Z,85.60
2019-02-20T07:57:54.101Z,85.40
2019-02-20T08:00:23.279Z,85.20
2019-02-20T08:02:52.480Z,85.10
2019-02-20T08:05:21.670Z,84.80
2019-02-20T08:07:51.176Z,84.70
2019-02-20T08:10:20.360Z,84.50
2019-02-20T08:12:49.697Z,84.30
2019-02-20T08:15:18.884Z,84.00
2019-02-20T08:17:48.053Z,84.00
2019-02-20T08:20:17.227Z,83.80
2019-02-20T08:22:46.429Z,83.80
2019-02-20T08:25:22.572Z,83.70
2019-02-20T08:27:46.493Z,83.50
2019-02-20T08:30:15.718Z,83.40
2019-02-20T08:32:44.878Z,83.40
2019-02-20T08:35:14.062Z,83.20
2019-02-20T08:37:43.248Z,83.30
2019-02-20T08:40:14.522Z,83.30
2019-02-20T08:42:43.690Z,83.20
2019-02-20T08:45:13.244Z,83.00
2019-02-20T08:47:42.416Z,82.80
2019-02-20T08:50:12.859Z,82.90
2019-02-20T08:52:42.038Z,82.90
2019-02-20T08:55:11.501Z,82.80
2019-02-20T08:57:40.682Z,82.00
2019-02-20T09:00:14.373Z,82.00
2019-02-20T09:02:43.895Z,82.30
2019-02-20T09:05:13.071Z,82.40
2019-02-20T09:07:42.261Z,81.70
2019-02-20T09:10:13.364Z,82.20
2019-02-20T09:12:42.737Z,82.10
2019-02-20T09:15:13.757Z,81.50
2019-02-20T09:17:42.909Z,81.80
2019-02-20T09:20:12.236Z,81.30
2019-02-20T09:22:41.408Z,79.90
2019-02-20T09:25:19.463Z,79.50
2019-02-20T09:27:42.334Z,79.60
2019-02-20T09:30:13.677Z,79.20
2019-02-20T09:32:42.839Z,79.30
2019-02-20T09:35:12.497Z,80.10
2019-02-20T09:37:41.711Z,80.50
2019-02-20T09:40:15.753Z,81.00
2019-02-20T09:42:50.724Z,81.10
2019-02-20T09:45:19.917Z,81.30
2019-02-20T09:47:51.783Z,80.30
2019-02-20T09:50:20.949Z,80.20
2019-02-20T09:52:52.798Z,79.90
2019-02-20T09:55:21.047Z,80.20
2019-02-20T09:57:50.225Z,80.60
2019-02-20T10:00:20.016Z,81.00
2019-02-20T10:02:49.225Z,81.50
2019-02-20T10:05:18.432Z,81.80
2019-02-20T10:07:47.649Z,81.70
2019-02-20T10:10:16.849Z,81.70
2019-02-20T10:12:46.025Z,81.60
2019-02-20T10:15:19.176Z,81.10
2019-02-20T10:17:48.373Z,81.00
2019-02-20T10:20:17.565Z,80.60
2019-02-20T10:22:46.809Z,80.20
2019-02-20T10:25:16.004Z,79.90
2019-02-20T10:27:45.205Z,79.80
2019-02-20T10:30:19.616Z,79.50
2019-02-20T10:32:48.813Z,79.10
2019-02-20T10:35:17.989Z,78.90
2019-02-20T10:37:47.180Z,78.60
2019-02-20T10:40:16.665Z,77.90
2019-02-20T10:42:45.824Z,77.50
2019-02-20T10:45:15.262Z,76.90
2019-02-20T10:47:44.451Z,76.50
2019-02-20T10:50:14.185Z,76.40
2019-02-20T10:52:43.361Z,76.20
2019-02-20T10:55:12.553Z,75.80
2019-02-20T10:57:41.754Z,75.30
2019-02-20T11:00:24.591Z,74.70
2019-02-20T11:02:57.112Z,74.80
2019-02-20T11:05:26.373Z,74.90
2019-02-20T11:07:55.555Z,74.70
2019-02-20T11:10:24.819Z,74.40
2019-02-20T11:12:54.270Z,74.40
2019-02-20T11:15:23.542Z,74.50
2019-02-20T11:17:52.938Z,74.20
2019-02-20T11:20:22.117Z,74.50
2019-02-20T11:22:51.577Z,74.60
2019-02-20T11:25:20.787Z,74.30
2019-02-20T11:27:49.962Z,74.30
2019-02-20T11:30:26.545Z,74.00
2019-02-20T11:32:55.716Z,73.70
2019-02-20T11:35:24.918Z,73.80
2019-02-20T11:37:54.090Z,73.60
2019-02-20T11:40:23.281Z,73.60
2019-02-20T11:42:52.728Z,73.60
2019-02-20T11:45:22.001Z,73.60
2019-02-20T11:47:51.185Z,73.80
2019-02-20T11:50:20.460Z,73.70
2019-02-20T11:52:49.655Z,73.90
2019-02-20T11:55:18.846Z,73.90
2019-02-20T11:57:48.058Z,73.70
2019-02-20T12:00:18.784Z,73.60
2019-02-20T12:02:48.162Z,73.40
2019-02-20T12:05:17.358Z,73.30
2019-02-20T12:07:46.561Z,73.10
2019-02-20T12:10:17.388Z,73.00
2019-02-20T12:12:46.838Z,72.90
2019-02-20T12:15:16.030Z,72.70
2019-02-20T12:17:45.229Z,72.60
2019-02-20T12:20:14.570Z,72.50
2019-02-20T12:22:43.787Z,72.40
2019-02-20T12:25:13.017Z,72.20
2019-02-20T12:27:42.244Z,72.40
2019-02-20T12:30:12.293Z,72.70
2019-02-20T12:32:41.476Z,72.50
2019-02-20T12:35:10.740Z,72.70
2019-02-20T12:37:39.929Z,72.30
2019-02-20T12:40:10.829Z,72.20
2019-02-20T12:42:41.852Z,72.20
2019-02-20T12:45:11.084Z,72.30
2019-02-20T12:47:40.301Z,71.70
2019-02-20T12:50:13.650Z,71.80
2019-02-20T12:52:42.853Z,71.20
2019-02-20T12:55:12.037Z,70.90
2019-02-20T12:57:41.252Z,70.70
2019-02-20T13:00:12.654Z,70.50
2019-02-20T13:02:41.912Z,70.50
2019-02-20T13:05:11.116Z,70.40
2019-02-20T13:07:40.292Z,69.70
2019-02-20T13:10:10.322Z,69.60
2019-02-20T13:12:39.552Z,70.10
2019-02-20T13:15:10.380Z,69.80
2019-02-20T13:17:39.550Z,69.30
2019-02-20T13:20:12.927Z,69.10
2019-02-20T13:22:42.121Z,68.90
2019-02-20T13:25:11.300Z,68.80
2019-02-20T13:27:40.508Z,68.40
2019-02-20T13:30:12.145Z,67.40
2019-02-20T13:32:41.789Z,67.90
2019-02-20T13:35:10.977Z,67.40
2019-02-20T13:37:40.332Z,66.90
2019-02-20T13:40:12.166Z,66.10
2019-02-20T13:42:41.381Z,66.70
2019-02-20T13:45:10.566Z,67.30
2019-02-20T13:47:40.470Z,67.40
2019-02-20T13:50:11.793Z,67.80
2019-02-20T13:52:41.484Z,68.10
2019-02-20T13:55:11.759Z,67.40
2019-02-20T13:57:40.941Z,67.50
2019-02-20T14:00:13.286Z,67.30
2019-02-20T14:02:42.797Z,67.20
2019-02-20T14:05:12.145Z,67.00
2019-02-20T14:07:42.139Z,66.40
2019-02-20T14:10:12.567Z,66.60
2019-02-20T14:12:41.935Z,66.70
2019-02-20T14:15:12.159Z,66.80
2019-02-20T14:17:41.341Z,66.70
2019-02-20T14:20:12.841Z,66.50
2019-02-20T14:22:42.416Z,66.40
2019-02-20T14:25:11.593Z,66.00
2019-02-20T14:27:40.801Z,66.40
2019-02-20T14:30:11.595Z,66.10
2019-02-20T14:32:40.781Z,66.30
2019-02-20T14:35:14.941Z,66.30
2019-02-20T14:37:44.125Z,66.10
2019-02-20T14:40:13.752Z,66.00
2019-02-20T14:42:42.983Z,65.20
2019-02-20T14:45:15.369Z,65.20
2019-02-20T14:47:44.560Z,66.00
2019-02-20T14:50:14.107Z,66.50
2019-02-20T14:52:43.298Z,66.90
2019-02-20T14:55:13.511Z,66.40
2019-02-20T14:57:42.731Z,66.80
2019-02-20T15:00:13.706Z,66.90
2019-02-20T15:02:42.957Z,66.80
2019-02-20T15:05:12.516Z,66.20
2019-02-20T15:07:41.739Z,66.40
2019-02-20T15:10:11.049Z,66.20
2019-02-20T15:12:40.240Z,65.80
2019-02-20T15:15:11.948Z,65.20
2019-02-20T15:17:41.135Z,65.70
2019-02-20T15:20:11.327Z,66.10
2019-02-20T15:22:40.612Z,65.60
2019-02-20T15:25:10.944Z,65.10
2019-02-20T15:27:40.397Z,65.60
2019-02-20T15:30:12.640Z,66.10
2019-02-20T15:32:41.921Z,66.70
2019-02-20T15:35:11.333Z,67.10
2019-02-20T15:37:40.589Z,67.50
2019-02-20T15:40:10.096Z,67.90
2019-02-20T15:42:39.419Z,67.70
2019-02-20T15:45:10.797Z,67.70
2019-02-20T15:47:39.972Z,67.50
2019-02-20T15:50:11.633Z,66.80
2019-02-20T15:52:40.804Z,66.80
2019-02-20T15:55:11.506Z,66.70
2019-02-20T15:57:40.823Z,66.90
2019-02-20T16:00:18.729Z,67.00
2019-02-20T16:02:48.284Z,67.10
2019-02-20T16:05:19.148Z,67.10
2019-02-20T16:07:48.352Z,67.30
2019-02-20T16:10:17.536Z,67.40
2019-02-20T16:12:46.738Z,67.60
2019-02-20T16:15:15.908Z,67.50
2019-02-20T16:17:45.256Z,67.50
2019-02-20T16:20:14.857Z,67.70
2019-02-20T16:22:44.073Z,67.80
2019-02-20T16:25:16.912Z,68.10
2019-02-20T16:27:47.530Z,68.20
2019-02-20T16:30:16.977Z,68.30
2019-02-20T16:32:46.171Z,68.50
2019-02-20T16:35:15.622Z,68.50
2019-02-20T16:37:44.818Z,68.70
2019-02-20T16:40:15.324Z,68.90
2019-02-20T16:42:44.517Z,69.10
2019-02-20T16:45:21.841Z,69.00
2019-02-20T16:47:52.660Z,68.90
2019-02-20T16:50:22.177Z,69.00
2019-02-20T16:52:51.353Z,68.90
2019-02-20T16:55:22.536Z,68.90
2019-02-20T16:57:56.713Z,69.10
2019-02-20T17:00:22.959Z,69.30
2019-02-20T17:02:52.424Z,69.40
2019-02-20T17:05:21.733Z,69.50
2019-02-20T17:07:50.920Z,69.60
2019-02-20T17:10:20.171Z,70.10
2019-02-20T17:12:49.361Z,70.80
2019-02-20T17:15:18.530Z,71.10
2019-02-20T17:17:48.215Z,71.40
2019-02-20T17:20:21.965Z,71.60
2019-02-20T17:22:51.494Z,71.60
2019-02-20T17:25:21.055Z,72.10
2019-02-20T17:27:50.319Z,72.40
2019-02-20T17:30:20.111Z,72.40
2019-02-20T17:32:49.671Z,72.50
2019-02-20T17:35:18.911Z,72.80
2019-02-20T17:37:48.174Z,72.90
2019-02-20T17:40:17.365Z,73.00
2019-02-20T17:42:46.640Z,73.10
2019-02-20T17:45:19.752Z,73.50
2019-02-20T17:47:49.621Z,73.80
2019-02-20T17:50:21.329Z,74.20
2019-02-20T17:52:50.608Z,74.40
2019-02-20T17:55:19.798Z,74.60
2019-02-20T17:57:48.976Z,74.80
2019-02-20T18:00:19.957Z,75.10
2019-02-20T18:02:49.763Z,75.30
2019-02-20T18:05:19.165Z,75.40
2019-02-20T18:07:52.015Z,75.60
2019-02-20T18:10:20.912Z,75.80
2019-02-20T18:12:50.431Z,75.80
2019-02-20T18:15:19.924Z,75.60
2019-02-20T18:17:49.131Z,75.60
2019-02-20T18:20:18.640Z,75.60
2019-02-20T18:22:47.824Z,75.60
2019-02-20T18:25:17.103Z,75.80
2019-02-20T18:27:46.304Z,76.10
2019-02-20T18:30:15.971Z,76.40
2019-02-20T18:32:45.232Z,76.60
2019-02-20T18:35:16.350Z,76.80
2019-02-20T18:37:45.548Z,77.00
2019-02-20T18:40:16.075Z,77.40
2019-02-20T18:42:45.351Z,77.60
2019-02-20T18:45:15.681Z,77.80
2019-02-20T18:47:44.882Z,78.00
2019-02-20T18:50:15.109Z,78.20
2019-02-20T18:52:44.308Z,78.50
2019-02-20T18:55:14.231Z,78.70
2019-02-20T18:57:43.438Z,78.70
2019-02-20T19:00:20.353Z,78.70
2019-02-20T19:02:49.713Z,78.70
2019-02-20T19:05:19.300Z,78.70
2019-02-20T19:07:48.724Z,78.60
2019-02-20T19:10:29.702Z,78.60
2019-02-20T19:13:04.564Z,78.70
2019-02-20T19:15:49.069Z,78.80
2019-02-20T19:18:35.919Z,78.90
2019-02-20T19:21:23.438Z,79.00
2019-02-20T19:24:10.726Z,79.20
2019-02-20T19:27:02.734Z,79.20
2019-02-20T19:29:35.171Z,79.20
2019-02-20T19:32:21.242Z,79.50
2019-02-20T19:35:00.044Z,79.40
2019-02-20T19:37:38.134Z,79.30
2019-02-20T19:40:13.099Z,79.60
2019-02-20T19:42:45.485Z,79.40
2019-02-20T19:45:42.183Z,79.60
2019-02-20T19:48:20.463Z,80.00
2019-02-20T19:54:35.895Z,80.30
2019-02-20T19:57:31.037Z,80.30
2019-02-20T20:00:15.455Z,80.40
2019-02-20T20:02:50.463Z,80.60
2019-02-20T20:05:40.722Z,80.70
2019-02-20T20:08:28.052Z,80.70
2019-02-20T20:11:04.120Z,80.70
2019-02-20T20:14:09.885Z,80.70
2019-02-20T20:16:48.215Z,80.80
2019-02-20T20:19:23.293Z,81.00
2019-02-20T20:22:32.458Z,81.40
2019-02-20T20:25:13.860Z,81.70
2019-02-20T20:31:33.564Z,82.00
2019-02-20T20:34:05.911Z,81.70
2019-02-20T20:37:04.200Z,81.60
2019-02-20T20:39:51.313Z,82.20
2019-02-20T20:42:41.352Z,83.40
2019-02-20T20:45:16.377Z,82.80
2019-02-20T20:47:54.487Z,82.50
2019-02-20T20:50:54.377Z,82.30
2019-02-20T20:53:29.289Z,81.90
2019-02-20T20:56:13.530Z,81.80
2019-02-20T20:58:57.721Z,81.80
2019-02-20T21:01:41.890Z,82.00
2019-02-20T21:04:26.222Z,82.60
2019-02-20T21:07:07.481Z,82.80
2019-02-20T21:09:54.888Z,83.30
2019-02-20T21:12:44.804Z,83.50
2019-02-20T21:15:29.224Z,83.50
2019-02-20T21:18:22.056Z,83.40
2019-02-20T21:21:00.619Z,83.30
2019-02-20T21:23:50.390Z,83.70
2019-02-20T21:26:43.696Z,83.90
2019-02-20T21:29:36.906Z,84.20
2019-02-20T21:32:31.801Z,84.40
2019-02-20T21:35:13.069Z,84.70
2019-02-20T21:38:04.257Z,85.10
2019-02-20T21:40:54.805Z,84.80
2019-02-20T21:43:42.051Z,84.50
2019-02-20T21:46:26.204Z,84.30
2019-02-20T21:49:30.369Z,83.90
2019-02-20T21:52:38.965Z,83.60
2019-02-20T21:55:40.109Z,83.20
2019-02-20T21:58:21.269Z,83.20
2019-02-20T22:00:56.209Z,83.10
2019-02-20T22:03:55.592Z,83.10
2019-02-20T22:06:43.011Z,82.80
2019-02-20T22:09:27.170Z,82.50
2019-02-20T22:12:04.877Z,82.70
2019-02-20T22:14:37.573Z,82.90
2019-02-20T22:17:12.517Z,83.10
2019-02-20T22:20:18.238Z,83.20
2019-02-20T22:23:25.555Z,83.00
2019-02-20T22:26:01.803Z,82.70
2019-02-20T22:28:59.748Z,82.50
2019-02-20T22:31:44.195Z,82.60
2019-02-20T22:34:16.638Z,82.70
2019-02-20T22:37:12.956Z,82.80
2019-02-20T22:39:54.244Z,82.70
2019-02-20T22:42:41.464Z,82.80
2019-02-20T22:45:33.559Z,83.20
2019-02-20T22:48:34.430Z,83.50
2019-02-20T22:51:31.073Z,83.70
2019-02-20T22:54:21.998Z,83.50
2019-02-20T22:57:03.277Z,83.40
2019-02-20T23:00:01.441Z,83.60
2019-02-20T23:02:42.731Z,83.80
2019-02-20T23:05:46.859Z,83.70
2019-02-20T23:08:34.410Z,83.60
2019-02-20T23:11:40.356Z,83.60
2019-02-20T23:14:18.766Z,84.00
2019-02-20T23:16:47.934Z,84.10
2019-02-20T23:19:17.125Z,84.40
2019-02-20T23:21:46.331Z,84.40
2019-02-20T23:24:15.693Z,84.20
2019-02-20T23:26:44.866Z,84.10
2019-02-20T23:29:14.056Z,84.00
2019-02-20T23:31:43.301Z,84.10
2019-02-20T23:34:12.502Z,84.00
2019-02-20T23:36:41.696Z,83.90
2019-02-20T23:39:11.167Z,83.60
2019-02-20T23:41:40.324Z,83.40
2019-02-20T23:44:09.505Z,83.40
2019-02-20T23:46:38.695Z,83.40
2019-02-20T23:49:07.880Z,83.70
2019-02-20T23:51:37.060Z,83.70
2019-02-20T23:54:06.248Z,83.70
2019-02-20T23:56:35.416Z,83.70
2019-02-20T23:59:04.593Z,83.70
